Time;durP1;ratioP1;P1;durP2;ratioP2;P2;SDS_P1;SDS_P2;PMS_P1;PMS_P2;Temp;Humidity;BMP_temperature;BMP_pressure;BME280_temperature;BME280_humidity;BME280_pressure;Samples;Min_cycle;Max_cycle;Signal;HPM_P1;HPM_P2
2022/10/13 00:01:21;;;;;;;10.50;6.57;;;;;;;5.57;84.21;99612.81;5094730;28;20046;-60
2022/10/13 00:03:47;;;;;;;12.25;5.30;;;;;;;5.52;84.79;99603.91;5113000;28;20051;-60
2022/10/13 00:06:22;;;;;;;10.98;5.25;;;;;;;5.43;85.22;99613.78;5113371;28;20040;-60
2022/10/13 00:08:49;;;;;;;8.40;5.38;;;;;;;5.36;85.69;99608.53;5111898;28;20085;-60
2022/10/13 00:11:22;;;;;;;10.25;5.85;;;;;;;5.22;86.11;99610.28;5113230;28;20509;-60
2022/10/13 00:13:49;;;;;;;13.70;6.45;;;;;;;5.16;85.92;99615.53;5111722;28;20065;-60
2022/10/13 00:16:16;;;;;;;10.38;5.63;;;;;;;5.08;87.32;99615.69;5113013;28;20378;-60
2022/10/13 00:18:42;;;;;;;9.48;6.32;;;;;;;5.02;86.73;99617.28;5112703;28;20044;-60
2022/10/13 00:21:13;;;;;;;12.52;5.88;;;;;;;4.95;87.82;99613.81;5112629;28;20086;-60
2022/10/13 00:23:40;;;;;;;10.13;6.10;;;;;;;4.90;87.37;99616.22;5111532;28;20043;-58
2022/10/13 00:26:08;;;;;;;15.88;8.85;;;;;;;4.86;88.02;99610.56;5111324;28;20039;-59
2022/10/13 00:28:35;;;;;;;18.27;9.52;;;;;;;4.77;87.74;99615.16;5111324;28;20089;-58
2022/10/13 00:31:00;;;;;;;14.68;7.68;;;;;;;4.74;88.61;99614.72;5112815;28;20051;-59
2022/10/13 00:33:26;;;;;;;17.92;10.18;;;;;;;4.75;88.67;99619.78;5111242;28;20055;-59
2022/10/13 00:35:52;;;;;;;14.70;9.30;;;;;;;4.71;88.86;99613.31;5112173;28;20523;-59
2022/10/13 00:38:20;;;;;;;14.10;8.27;;;;;;;4.72;88.50;99611.47;5101851;28;20039;-59
2022/10/13 00:40:47;;;;;;;16.17;8.85;;;;;;;4.74;88.00;99619.97;5112554;28;20039;-59
2022/10/13 00:43:46;;;;;;;16.10;8.80;;;;;;;4.76;88.64;99624.03;5111614;28;20504;-60
2022/10/13 00:46:13;;;;;;;16.00;9.00;;;;;;;4.76;88.69;99626.66;5112320;28;20221;-58
2022/10/13 00:48:39;;;;;;;13.63;7.97;;;;;;;4.80;88.17;99613.97;5112572;28;20040;-59
2022/10/13 00:51:06;;;;;;;10.70;7.53;;;;;;;4.85;88.42;99626.50;5093973;28;20072;-60
2022/10/13 00:53:34;;;;;;;11.45;6.53;;;;;;;4.88;88.08;99626.09;5112228;28;20055;-58
2022/10/13 00:56:00;;;;;;;13.25;9.18;;;;;;;4.92;87.36;99633.41;5112356;28;20051;-59
2022/10/13 00:58:30;;;;;;;12.88;7.90;;;;;;;4.96;87.72;99629.38;5110856;28;20500;-60
2022/10/13 01:00:56;;;;;;;16.00;8.25;;;;;;;5.00;87.27;99627.19;5111011;28;20044;-58
2022/10/13 01:03:22;;;;;;;13.02;8.10;;;;;;;4.99;87.16;99639.50;5112180;28;20138;-60
2022/10/13 01:05:50;;;;;;;16.08;11.27;;;;;;;5.00;87.65;99633.25;5110930;28;20063;-60
2022/10/13 01:08:17;;;;;;;18.75;10.63;;;;;;;5.05;87.21;99632.66;5112032;28;20500;-59
2022/10/13 01:10:53;;;;;;;18.15;9.07;;;;;;;5.06;87.01;99634.28;5110647;28;20043;-59
2022/10/13 01:13:28;;;;;;;14.98;8.75;;;;;;;5.05;87.21;99634.47;5110733;28;20051;-60
2022/10/13 01:16:20;;;;;;;13.93;9.27;;;;;;;5.03;87.52;99626.81;5093620;28;20042;-60
2022/10/13 01:19:27;;;;;;;16.58;9.25;;;;;;;5.04;86.83;99628.41;5111819;28;20044;-58
2022/10/13 01:22:17;;;;;;;13.70;8.20;;;;;;;5.04;86.88;99633.66;5048567;28;20425;-59
2022/10/13 01:24:46;;;;;;;14.13;8.30;;;;;;;4.99;87.77;99644.75;5111910;28;20516;-60
2022/10/13 01:27:17;;;;;;;14.45;8.30;;;;;;;4.99;87.07;99638.69;5110435;28;20481;-60
2022/10/13 01:30:09;;;;;;;17.42;8.50;;;;;;;4.98;87.21;99639.72;5112007;28;20071;-60
2022/10/13 01:32:54;;;;;;;13.82;7.25;;;;;;;4.95;87.81;99640.91;5110154;28;20126;-60
2022/10/13 01:35:55;;;;;;;12.93;7.32;;;;;;;4.93;87.41;99636.84;5111825;28;20126;-60
2022/10/13 01:38:39;;;;;;;14.50;7.22;;;;;;;4.86;87.92;99641.25;5111960;28;20090;-60
2022/10/13 01:41:17;;;;;;;15.70;7.28;;;;;;;4.83;88.03;99633.78;5110250;28;20043;-59
2022/10/13 01:43:55;;;;;;;14.82;7.28;;;;;;;4.82;87.55;99646.06;5112036;28;20169;-60
2022/10/13 01:46:28;;;;;;;14.80;7.47;;;;;;;4.81;88.38;99641.03;5093322;28;20084;-60
2022/10/13 01:48:55;;;;;;;14.25;8.93;;;;;;;4.83;87.63;99644.28;5110283;28;20542;-60
2022/10/13 01:51:22;;;;;;;10.90;6.57;;;;;;;4.87;87.60;99637.63;5110174;28;20047;-59
2022/10/13 01:53:52;;;;;;;14.32;8.32;;;;;;;4.84;87.20;99638.81;5095821;28;20051;-60
2022/10/13 01:56:17;;;;;;;14.13;7.10;;;;;;;4.80;87.80;99644.66;5114472;28;20512;-59
2022/10/13 01:58:46;;;;;;;12.07;7.07;;;;;;;4.80;87.12;99645.47;5115805;28;20047;-60
2022/10/13 02:01:17;;;;;;;13.90;8.15;;;;;;;4.77;87.84;99646.66;5115351;28;20050;-60
2022/10/13 02:03:58;;;;;;;15.50;8.38;;;;;;;4.75;87.58;99643.41;5115626;28;20036;-61
2022/10/13 02:06:29;;;;;;;14.88;6.40;;;;;;;4.73;87.53;99642.78;5115363;28;20173;-60
2022/10/13 02:09:02;;;;;;;12.27;7.00;;;;;;;4.65;87.70;99639.53;5114190;28;20063;-58
2022/10/13 02:11:28;;;;;;;13.20;6.68;;;;;;;4.58;88.28;99644.72;5114097;28;20504;-60
2022/10/13 02:13:53;;;;;;;12.30;7.30;;;;;;;4.51;88.34;99644.69;5114200;28;20050;-58
2022/10/13 02:16:42;;;;;;;13.32;6.85;;;;;;;4.53;87.69;99647.94;5114433;28;20056;-60
2022/10/13 02:19:10;;;;;;;14.63;7.93;;;;;;;4.53;87.71;99642.69;5115358;28;20100;-59
2022/10/13 02:21:36;;;;;;;17.42;7.25;;;;;;;4.59;88.32;99645.53;5113586;28;20051;-60
2022/10/13 02:24:03;;;;;;;12.73;7.25;;;;;;;4.62;87.63;99645.13;5115343;28;20499;-60
2022/10/13 02:26:30;;;;;;;12.52;7.43;;;;;;;4.65;87.70;99648.22;5113758;28;20145;-59
2022/10/13 02:29:12;;;;;;;11.93;7.55;;;;;;;4.71;87.62;99654.50;5115365;28;20035;-59
2022/10/13 02:31:38;;;;;;;12.98;7.47;;;;;;;4.69;87.52;99646.81;5114918;28;20181;-59
2022/10/13 02:34:04;;;;;;;15.77;9.93;;;;;;;4.74;87.29;99659.38;5113751;28;20122;-61
2022/10/13 02:36:30;;;;;;;24.25;11.32;;;;;;;4.75;86.71;99656.53;5114788;28;20066;-61
2022/10/13 02:38:56;;;;;;;18.67;10.43;;;;;;;4.80;87.18;99660.44;5115183;28;20434;-60
2022/10/13 02:41:22;;;;;;;15.60;8.77;;;;;;;4.83;86.35;99654.78;5114764;28;20492;-59
2022/10/13 02:43:47;;;;;;;15.10;10.52;;;;;;;4.89;86.68;99654.81;5114989;28;20404;-60
2022/10/13 02:46:13;;;;;;;19.15;9.73;;;;;;;4.97;86.58;99653.81;5113575;28;20036;-59
2022/10/13 02:48:39;;;;;;;18.85;10.32;;;;;;;5.03;85.67;99660.13;5113426;28;20051;-59
2022/10/13 02:51:05;;;;;;;15.52;7.82;;;;;;;5.02;85.98;99656.69;5114516;28;20485;-60
2022/10/13 02:53:30;;;;;;;15.57;9.23;;;;;;;5.02;85.33;99661.94;5114464;28;20039;-59
2022/10/13 02:55:58;;;;;;;11.60;7.85;;;;;;;5.02;85.87;99656.69;5114441;28;20043;-59
2022/10/13 02:58:24;;;;;;;11.80;7.20;;;;;;;4.98;86.03;99660.72;5114382;28;20043;-61
2022/10/13 03:00:50;;;;;;;10.60;7.10;;;;;;;4.96;85.83;99657.47;5114118;28;20035;-59
2022/10/13 03:03:15;;;;;;;15.52;7.38;;;;;;;4.97;85.48;99661.72;5114559;28;20567;-58
2022/10/13 03:05:43;;;;;;;13.77;6.65;;;;;;;4.97;85.73;99664.34;5112422;28;20032;-59
2022/10/13 03:08:09;;;;;;;9.73;6.85;;;;;;;4.94;85.50;99656.84;5114575;28;20067;-60
2022/10/13 03:10:34;;;;;;;19.05;8.32;;;;;;;4.91;85.25;99644.09;5113323;28;20452;-59
2022/10/13 03:13:00;;;;;;;15.23;8.68;;;;;;;5.05;85.62;99661.56;5113093;28;20039;-59
2022/10/13 03:15:26;;;;;;;13.25;8.48;;;;;;;5.07;84.88;99669.25;5112939;28;20040;-60
2022/10/13 03:17:54;;;;;;;15.32;7.90;;;;;;;5.04;84.86;99664.38;5113258;28;20510;-60
2022/10/13 03:20:20;;;;;;;16.10;7.95;;;;;;;5.09;85.14;99661.97;5114102;28;20126;-60
2022/10/13 03:22:45;;;;;;;11.23;7.75;;;;;;;5.09;85.47;99662.81;5112677;28;20100;-60
2022/10/13 03:25:11;;;;;;;12.68;6.93;;;;;;;5.11;84.68;99658.16;5113090;28;20039;-59
2022/10/13 03:27:39;;;;;;;14.30;8.15;;;;;;;5.11;84.54;99666.03;5113919;28;20389;-60
2022/10/13 03:30:05;;;;;;;13.07;7.70;;;;;;;5.00;85.31;99664.78;5112862;28;20040;-60
2022/10/13 03:32:33;;;;;;;13.55;8.00;;;;;;;5.04;85.65;99667.81;5114291;28;20323;-60
2022/10/13 03:34:59;;;;;;;13.50;7.18;;;;;;;4.92;85.09;99648.38;5095923;28;20040;-59
2022/10/13 03:37:25;;;;;;;13.80;8.30;;;;;;;5.08;85.20;99660.34;5114130;28;20500;-61
2022/10/13 03:39:50;;;;;;;13.18;7.68;;;;;;;5.09;85.20;99668.06;5112454;28;20043;-60
2022/10/13 03:42:16;;;;;;;11.70;7.88;;;;;;;5.12;85.24;99672.13;5113525;28;20130;-62
2022/10/13 03:44:43;;;;;;;21.05;8.73;;;;;;;5.08;84.93;99674.31;5112307;28;20085;-60
2022/10/13 03:47:08;;;;;;;18.35;9.95;;;;;;;5.07;85.10;99677.13;5113634;28;20039;-60
2022/10/13 03:49:36;;;;;;;18.48;9.98;;;;;;;5.04;85.13;99686.22;5095310;28;20050;-60
2022/10/13 03:52:02;;;;;;;22.30;10.10;;;;;;;5.13;85.40;99685.06;5112025;28;20036;-60
2022/10/13 03:54:27;;;;;;;17.40;7.88;;;;;;;5.15;85.23;99684.88;5113920;28;20096;-60
2022/10/13 03:56:53;;;;;;;13.07;7.30;;;;;;;5.04;84.66;99686.22;5113196;28;20476;-58
2022/10/13 03:59:19;;;;;;;11.57;7.45;;;;;;;4.97;85.35;99688.81;5112107;28;20043;-60
2022/10/13 04:01:44;;;;;;;12.13;6.55;;;;;;;4.97;85.58;99690.59;5112033;28;20043;-59
2022/10/13 04:04:11;;;;;;;14.30;6.85;;;;;;;4.91;85.86;99699.25;5113566;28;20138;-59
2022/10/13 04:06:40;;;;;;;16.45;7.10;;;;;;;4.85;86.07;99674.56;5113220;28;20500;-60
2022/10/13 04:09:06;;;;;;;11.88;6.75;;;;;;;4.94;86.29;99704.97;5113475;28;20097;-59
2022/10/13 04:11:31;;;;;;;9.23;6.20;;;;;;;4.96;86.22;99697.69;5113608;28;20042;-59
2022/10/13 04:13:57;;;;;;;11.30;6.20;;;;;;;5.00;85.40;99693.69;5111973;28;20404;-60
2022/10/13 04:16:26;;;;;;;10.65;6.57;;;;;;;5.00;85.12;99700.75;5113315;28;20126;-58
2022/10/13 04:19:03;;;;;;;12.15;7.50;;;;;;;5.09;85.13;99704.00;5112904;28;20446;-61
2022/10/13 04:21:30;;;;;;;15.57;6.35;;;;;;;5.12;85.48;99701.03;5111570;28;20055;-60
2022/10/13 04:23:57;;;;;;;12.80;7.10;;;;;;;5.21;84.90;99698.03;5112044;28;20067;-62
2022/10/13 04:26:25;;;;;;;12.73;7.47;;;;;;;5.33;84.67;99700.91;5111570;28;20547;-61
2022/10/13 04:28:52;;;;;;;13.32;7.38;;;;;;;5.38;83.39;99692.44;5112846;28;20051;-60
2022/10/13 04:31:20;;;;;;;12.23;7.80;;;;;;;5.36;82.98;99700.53;5111806;28;20044;-61
2022/10/13 04:33:47;;;;;;;13.45;8.88;;;;;;;5.35;83.94;99698.88;5112745;28;20051;-60
2022/10/13 04:36:13;;;;;;;17.15;9.32;;;;;;;5.38;83.21;99690.63;5111685;28;20046;-63
2022/10/13 04:38:40;;;;;;;17.20;8.73;;;;;;;5.47;83.74;99707.88;5112992;28;20401;-61
2022/10/13 04:41:07;;;;;;;12.05;6.78;;;;;;;5.44;83.60;99697.75;5094363;28;20472;-61
2022/10/13 04:43:33;;;;;;;12.25;6.15;;;;;;;5.40;83.27;99695.69;5111156;28;20052;-61
2022/10/13 04:46:06;;;;;;;11.45;6.15;;;;;;;5.38;83.19;99709.03;5112487;28;20039;-61
2022/10/13 04:48:32;;;;;;;11.38;5.95;;;;;;;5.41;83.94;99703.41;5111183;28;20044;-59
2022/10/13 04:51:06;;;;;;;9.90;6.07;;;;;;;5.53;83.47;99698.38;5112553;28;20048;-60
2022/10/13 04:53:32;;;;;;;10.60;5.90;;;;;;;5.56;82.98;99702.41;5112341;28;20076;-61
2022/10/13 04:56:04;;;;;;;17.52;5.80;;;;;;;5.59;83.05;99705.47;5110966;28;20126;-61
2022/10/13 04:58:31;;;;;;;15.95;6.90;;;;;;;5.64;82.59;99708.31;5112536;27;20562;-61
2022/10/13 05:01:01;;;;;;;21.23;9.90;;;;;;;5.73;81.82;99708.94;5093854;28;20084;-60
2022/10/13 05:03:27;;;;;;;20.27;10.98;;;;;;;5.65;81.46;99696.00;5112323;28;20484;-61
2022/10/13 05:05:53;;;;;;;15.82;8.10;;;;;;;5.86;81.88;99713.47;5111121;28;20058;-60
2022/10/13 05:08:19;;;;;;;12.35;7.47;;;;;;;5.88;81.96;99714.03;5112250;28;20598;-62
2022/10/13 05:10:58;;;;;;;11.35;5.80;;;;;;;5.90;81.35;99726.00;5112035;28;20067;-57
2022/10/13 05:13:25;;;;;;;9.77;6.22;;;;;;;5.93;81.18;99732.72;5112402;28;20040;-60
2022/10/13 05:15:51;;;;;;;11.27;5.93;;;;;;;5.84;81.46;99731.25;5112173;28;20035;-59
2022/10/13 05:18:20;;;;;;;12.38;6.05;;;;;;;5.84;81.12;99731.25;5112185;28;20039;-58
2022/10/13 05:20:46;;;;;;;16.05;6.43;;;;;;;5.85;81.42;99719.72;5111699;28;20569;-59
2022/10/13 05:23:12;;;;;;;9.45;6.70;;;;;;;5.94;81.23;99728.25;5112141;28;20397;-60
2022/10/13 05:25:38;;;;;;;13.07;7.00;;;;;;;5.91;81.48;99738.16;5111487;28;20142;-59
2022/10/13 05:28:05;;;;;;;13.82;6.93;;;;;;;5.99;80.96;99736.38;5110709;28;20571;-59
2022/10/13 05:30:31;;;;;;;9.90;6.60;;;;;;;5.94;81.29;99738.78;5110623;28;20369;-61
2022/10/13 05:33:00;;;;;;;14.40;7.40;;;;;;;5.81;81.95;99735.09;5110134;28;20035;-61
2022/10/13 05:35:26;;;;;;;14.98;7.47;;;;;;;5.85;81.72;99746.00;5092096;28;20058;-61
2022/10/13 05:37:51;;;;;;;18.38;8.45;;;;;;;5.92;81.78;99739.78;5110369;28;20571;-61
2022/10/13 05:40:20;;;;;;;14.15;7.97;;;;;;;6.06;80.84;99745.09;5109341;28;20035;-61
2022/10/13 05:42:48;;;;;;;13.48;8.20;;;;;;;6.16;81.10;99742.91;5110050;28;20067;-61
2022/10/13 05:45:14;;;;;;;13.93;9.20;;;;;;;6.29;80.07;99747.38;5110457;28;20031;-61
2022/10/13 05:47:40;;;;;;;14.32;8.50;;;;;;;6.35;79.46;99736.03;5092101;28;20113;-61
2022/10/13 05:50:07;;;;;;;14.80;8.27;;;;;;;6.41;79.05;99737.84;5109814;28;20497;-60
2022/10/13 05:52:33;;;;;;;13.02;7.80;;;;;;;6.57;78.31;99748.00;5110475;28;20393;-61
2022/10/13 05:55:02;;;;;;;13.07;8.57;;;;;;;6.63;78.41;99745.59;5109728;28;20081;-62
2022/10/13 05:57:34;;;;;;;9.90;6.97;;;;;;;6.68;77.76;99748.44;5093863;28;20126;-62
2022/10/13 06:00:04;;;;;;;13.68;6.72;;;;;;;6.79;77.69;99756.53;5076773;28;20051;-62
2022/10/13 06:02:48;;;;;;;13.40;6.97;;;;;;;6.99;77.24;99753.84;5110589;28;20051;-61
2022/10/13 06:05:16;;;;;;;14.90;7.00;;;;;;;7.10;76.55;99752.44;5110148;28;20535;-61
2022/10/13 06:07:42;;;;;;;11.85;7.03;;;;;;;7.21;76.32;99757.09;5104619;28;20035;-63
2022/10/13 06:10:09;;;;;;;13.50;7.47;;;;;;;7.19;75.59;99758.31;5089617;28;20048;-63
2022/10/13 06:12:37;;;;;;;12.15;6.72;;;;;;;7.12;75.99;99753.03;5107584;28;20044;-62
2022/10/13 06:15:03;;;;;;;10.02;6.45;;;;;;;7.14;76.47;99756.28;5110165;28;20139;-61
2022/10/13 06:17:30;;;;;;;11.27;6.90;;;;;;;7.11;76.04;99754.03;5111430;28;20040;-61
2022/10/13 06:19:56;;;;;;;10.40;5.70;;;;;;;7.06;76.03;99759.13;5110951;28;20059;-61
2022/10/13 06:22:21;;;;;;;8.27;5.97;;;;;;;7.12;76.16;99765.38;5111682;28;20047;-61
2022/10/13 06:24:47;;;;;;;10.77;5.95;;;;;;;7.02;76.46;99764.00;5104732;28;20142;-62
2022/10/13 06:27:13;;;;;;;11.60;5.95;;;;;;;7.01;76.76;99756.31;5104610;28;20421;-63
2022/10/13 06:29:39;;;;;;;10.63;5.65;;;;;;;6.94;76.45;99763.38;5107627;28;20039;-62
2022/10/13 06:32:05;;;;;;;9.57;5.88;;;;;;;6.89;76.53;99758.75;5105299;28;20042;-63
2022/10/13 06:34:31;;;;;;;10.57;5.70;;;;;;;6.97;76.67;99766.44;5106220;28;20043;-63
2022/10/13 06:36:57;;;;;;;10.43;6.63;;;;;;;6.95;76.97;99772.94;5104912;28;20412;-61
2022/10/13 06:39:23;;;;;;;11.85;5.93;;;;;;;7.08;77.09;99772.09;5105992;28;20222;-63
2022/10/13 06:41:49;;;;;;;8.43;5.75;;;;;;;7.13;76.72;99765.19;5108278;28;20059;-60
2022/10/13 06:44:15;;;;;;;9.30;5.93;;;;;;;7.37;75.57;99765.56;5111582;28;20069;-63
2022/10/13 06:46:41;;;;;;;11.07;6.70;;;;;;;7.56;74.84;99758.59;5094477;28;20047;-62
2022/10/13 06:49:09;;;;;;;11.32;5.90;;;;;;;7.73;73.80;99760.59;5110280;28;20510;-61
2022/10/13 06:51:35;;;;;;;7.90;6.05;;;;;;;7.87;72.87;99757.88;5107026;28;20530;-61
2022/10/13 06:54:01;;;;;;;8.40;5.85;;;;;;;7.95;73.21;99752.34;5092558;28;20067;-64
2022/10/13 06:56:29;;;;;;;11.70;5.95;;;;;;;8.13;72.54;99752.44;5108611;28;20036;-61
2022/10/13 06:58:57;;;;;;;9.32;5.70;;;;;;;8.32;71.83;99749.88;5112126;28;20066;-62
2022/10/13 07:01:23;;;;;;;10.48;5.80;;;;;;;8.30;71.43;99751.94;5111929;28;20039;-65
2022/10/13 07:03:50;;;;;;;9.27;5.45;;;;;;;8.43;71.66;99769.56;5112213;28;20067;-60
2022/10/13 07:06:19;;;;;;;6.37;4.37;;;;;;;8.46;71.06;99769.94;5113286;28;20066;-62
2022/10/13 07:08:44;;;;;;;12.35;6.28;;;;;;;8.51;70.88;99772.75;5110363;28;20044;-61
2022/10/13 07:11:12;;;;;;;9.95;5.35;;;;;;;8.39;71.28;99777.91;5111476;28;20454;-62
2022/10/13 07:13:39;;;;;;;7.38;4.68;;;;;;;8.33;71.42;99781.38;5109953;28;20093;-61
2022/10/13 07:16:08;;;;;;;7.75;5.22;;;;;;;8.42;71.28;99789.91;5111492;28;20384;-61
2022/10/13 07:18:34;;;;;;;12.30;6.50;;;;;;;8.39;71.02;99790.31;5110187;28;20575;-60
2022/10/13 07:21:00;;;;;;;9.10;5.75;;;;;;;8.34;70.98;99785.63;5109172;28;20090;-63
2022/10/13 07:23:26;;;;;;;9.70;6.20;;;;;;;8.38;71.25;99801.84;5111216;28;20480;-58
2022/10/13 07:25:52;;;;;;;8.07;6.30;;;;;;;8.31;71.29;99790.53;5111275;28;20043;-60
2022/10/13 07:28:18;;;;;;;5.05;4.40;;;;;;;8.04;71.74;99792.50;5109955;28;20038;-61
2022/10/13 07:30:44;;;;;;;9.27;4.88;;;;;;;7.95;72.78;99807.78;5112240;28;20118;-61
2022/10/13 07:33:10;;;;;;;8.43;5.15;;;;;;;7.84;73.29;99798.69;5109760;28;20053;-60
2022/10/13 07:35:39;;;;;;;9.85;5.10;;;;;;;7.71;72.94;99806.66;5110092;28;20039;-59
2022/10/13 07:38:06;;;;;;;9.05;5.28;;;;;;;7.53;74.34;99807.31;5113547;27;20404;-60
2022/10/13 07:40:32;;;;;;;8.52;5.30;;;;;;;7.44;74.27;99817.28;5115439;27;20793;-61
2022/10/13 07:42:58;;;;;;;11.05;6.00;;;;;;;7.39;74.53;99817.09;5118391;27;20122;-61
2022/10/13 07:45:24;;;;;;;8.95;5.88;;;;;;;7.20;74.70;99823.19;5130712;27;20448;-61
2022/10/13 07:47:49;;;;;;;9.73;5.55;;;;;;;7.22;74.99;99823.81;5127901;27;20043;-60
2022/10/13 07:50:15;;;;;;;10.07;5.60;;;;;;;7.16;75.06;99819.34;5131406;27;20035;-60
2022/10/13 07:52:41;;;;;;;8.55;5.35;;;;;;;7.16;75.19;99825.44;5129051;27;20221;-62
2022/10/13 07:55:10;;;;;;;9.23;5.68;;;;;;;7.11;75.42;99821.78;5131796;27;20362;-60
2022/10/13 07:57:36;;;;;;;10.77;5.57;;;;;;;7.06;75.89;99817.13;5132309;27;20126;-59
2022/10/13 08:00:04;;;;;;;8.20;5.63;;;;;;;7.05;75.82;99820.75;5132879;27;20148;-59
2022/10/13 08:02:40;;;;;;;9.57;6.28;;;;;;;7.12;75.24;99823.38;5128574;27;20184;-58
2022/10/13 08:05:06;;;;;;;10.40;5.68;;;;;;;7.20;75.69;99817.91;5091020;28;20073;-58
2022/10/13 08:07:32;;;;;;;8.68;6.28;;;;;;;7.40;74.99;99823.16;5106001;28;20103;-57
2022/10/13 08:10:00;;;;;;;8.48;5.80;;;;;;;7.34;75.00;99816.06;5108919;28;20122;-60
2022/10/13 08:12:26;;;;;;;7.88;5.95;;;;;;;7.17;74.84;99789.31;5109343;28;20040;-59
2022/10/13 08:14:52;;;;;;;10.80;5.82;;;;;;;7.42;74.92;99821.16;5111117;28;20069;-58
2022/10/13 08:17:17;;;;;;;8.00;5.85;;;;;;;7.63;74.36;99818.25;5110393;28;20382;-59
2022/10/13 08:19:43;;;;;;;10.13;6.18;;;;;;;7.76;73.67;99819.22;5111738;28;20035;-60
2022/10/13 08:22:09;;;;;;;13.52;6.82;;;;;;;7.91;73.44;99820.59;5110236;28;20054;-60
2022/10/13 08:24:36;;;;;;;11.40;7.15;;;;;;;8.00;72.74;99817.69;5110510;28;20036;-60
2022/10/13 08:27:02;;;;;;;15.60;7.68;;;;;;;8.07;72.52;99814.03;5111370;28;20096;-59
2022/10/13 08:29:27;;;;;;;8.00;6.28;;;;;;;8.16;72.37;99815.41;5108941;27;20126;-60
2022/10/13 08:31:53;;;;;;;11.95;6.35;;;;;;;8.30;72.15;99816.16;5088337;28;20119;-58
2022/10/13 08:34:19;;;;;;;8.82;5.72;;;;;;;8.36;71.99;99817.13;5091551;28;20054;-60
2022/10/13 08:36:46;;;;;;;8.32;5.28;;;;;;;8.47;70.74;99827.06;5088654;28;20126;-59
2022/10/13 08:39:12;;;;;;;7.07;4.32;;;;;;;8.53;69.79;99820.91;5090717;28;20040;-59
2022/10/13 08:41:42;;;;;;;5.90;4.53;;;;;;;8.65;69.60;99821.03;5102029;27;20043;-61
2022/10/13 08:44:47;;;;;;;7.22;5.15;;;;;;;8.67;69.33;99818.16;5110421;27;20726;-60
2022/10/13 08:47:27;;;;;;;10.30;5.53;;;;;;;8.71;69.53;99828.13;5105303;27;20401;-60
2022/10/13 08:49:55;;;;;;;10.77;5.80;;;;;;;8.73;69.67;99826.06;5118537;27;20381;-58
2022/10/13 08:52:26;;;;;;;8.40;5.88;;;;;;;8.92;69.29;99826.94;5112762;27;20043;-60
2022/10/13 08:54:56;;;;;;;9.70;5.28;;;;;;;9.04;68.92;99814.63;5107236;28;20044;-59
2022/10/13 08:57:22;;;;;;;9.35;5.72;;;;;;;9.09;68.29;99822.72;5104929;28;20040;-61
2022/10/13 08:59:48;;;;;;;8.45;4.72;;;;;;;8.96;67.60;99824.66;5106723;28;20048;-58
2022/10/13 09:02:22;;;;;;;10.27;5.07;;;;;;;9.04;67.07;99814.63;5107205;28;20047;-60
2022/10/13 09:04:50;;;;;;;10.45;6.50;;;;;;;9.23;66.95;99828.69;5109994;28;20130;-61
2022/10/13 09:07:26;;;;;;;9.93;4.47;;;;;;;9.19;66.82;99818.78;5110080;28;20031;-61
2022/10/13 09:09:53;;;;;;;10.30;4.53;;;;;;;9.26;66.42;99816.88;5091980;28;20139;-60
2022/10/13 09:12:23;;;;;;;4.70;3.85;;;;;;;9.32;65.25;99818.66;5109833;28;20400;-60
2022/10/13 09:14:57;;;;;;;7.18;3.45;;;;;;;9.37;65.84;99824.09;5110297;28;20048;-60
2022/10/13 09:17:25;;;;;;;8.93;4.55;;;;;;;9.36;65.85;99827.78;5110752;28;20558;-61
2022/10/13 09:20:23;;;;;;;4.45;3.85;;;;;;;9.38;65.17;99822.25;5111261;27;20071;-60
2022/10/13 09:23:03;;;;;;;10.23;5.00;;;;;;;9.14;65.37;99826.56;5104828;28;20056;-60
2022/10/13 09:25:41;;;;;;;7.15;5.18;;;;;;;9.08;66.26;99820.28;5108627;28;20062;-60
2022/10/13 09:28:31;;;;;;;5.75;4.18;;;;;;;9.02;66.17;99816.66;5108879;28;20046;-60
2022/10/13 09:31:11;;;;;;;7.35;4.93;;;;;;;8.97;66.51;99821.81;5097071;28;20156;-59
2022/10/13 09:33:37;;;;;;;;;;;;;;;9.04;66.15;99827.84;5107063;28;20031;-60
2022/10/13 09:36:03;;;;;;;6.80;4.65;;;;;;;9.02;66.26;99821.16;5105469;28;20304;-59
2022/10/13 09:38:29;;;;;;;7.80;4.63;;;;;;;9.13;66.31;99817.00;5106002;28;20130;-59
2022/10/13 09:41:08;;;;;;;6.28;3.90;;;;;;;9.35;64.76;99814.75;5108712;28;20046;-59
2022/10/13 09:43:41;;;;;;;9.35;4.55;;;;;;;9.52;64.31;99819.25;5102908;28;20058;-60
2022/10/13 09:46:25;;;;;;;7.20;3.85;;;;;;;9.66;63.98;99812.00;5105827;28;20147;-60
2022/10/13 09:48:57;;;;;;;5.25;3.78;;;;;;;9.49;63.94;99811.75;5107729;28;20050;-59
2022/10/13 09:51:47;;;;;;;6.53;3.85;;;;;;;9.44;64.10;99816.91;5072512;28;20423;-61
2022/10/13 09:54:41;;;;;;;7.03;4.78;;;;;;;9.40;65.15;99809.63;5084093;28;20036;-59
2022/10/13 09:57:33;;;;;;;8.23;4.10;;;;;;;9.36;65.50;99813.75;5083536;28;20096;-60
2022/10/13 10:00:18;;;;;;;6.60;4.40;;;;;;;9.33;65.22;99807.84;5068065;28;20043;-58
2022/10/13 10:02:50;;;;;;;7.43;4.85;;;;;;;9.29;65.15;99817.28;5067988;28;20048;-61
2022/10/13 10:05:23;;;;;;;8.43;4.93;;;;;;;9.29;66.12;99814.63;5067538;28;20415;-60
2022/10/13 10:08:05;;;;;;;6.80;4.60;;;;;;;9.46;65.33;99806.91;5062539;28;20036;-58
2022/10/13 10:10:36;;;;;;;10.20;5.25;;;;;;;9.67;64.54;99810.16;5049390;28;20075;-60
2022/10/13 10:13:09;;;;;;;8.88;5.38;;;;;;;9.75;63.79;99815.16;5082854;28;20047;-63
2022/10/13 10:15:47;;;;;;;7.72;4.95;;;;;;;9.54;64.21;99814.56;5086522;28;20079;-60
2022/10/13 10:18:17;;;;;;;6.82;4.22;;;;;;;9.54;63.52;99809.25;5072665;28;20432;-60
2022/10/13 10:20:50;;;;;;;8.20;4.10;;;;;;;9.51;63.93;99817.66;5088140;28;20048;-60
2022/10/13 10:23:37;;;;;;;5.65;4.30;;;;;;;9.23;64.43;99814.66;5086480;28;20520;-60
2022/10/13 10:26:10;;;;;;;6.30;3.78;;;;;;;9.06;63.73;99815.22;5106696;28;20100;-61
2022/10/13 10:28:48;;;;;;;9.65;4.90;;;;;;;8.90;64.69;99825.53;5112075;28;20599;-60
2022/10/13 10:31:22;;;;;;;5.13;4.13;;;;;;;8.82;65.08;99823.94;5112384;28;20047;-61
2022/10/13 10:34:28;;;;;;;7.38;5.43;;;;;;;8.79;64.42;99822.53;5113375;28;20462;-58
2022/10/13 10:37:25;;;;;;;6.72;4.88;;;;;;;8.86;64.64;99820.69;5112410;28;20047;-60
2022/10/13 10:40:20;;;;;;;5.50;4.20;;;;;;;8.67;64.80;99823.47;5110711;28;20044;-60
2022/10/13 10:43:42;;;;;;;5.72;3.63;;;;;;;8.67;65.28;99823.47;5103228;28;20043;-60
2022/10/13 10:46:22;;;;;;;4.20;3.30;;;;;;;8.61;64.74;99833.84;5046149;28;20108;-61
2022/10/13 10:48:49;;;;;;;5.55;3.60;;;;;;;8.62;65.10;99818.84;5046512;28;20529;-59
2022/10/13 10:51:16;;;;;;;7.55;3.70;;;;;;;8.73;63.97;99825.25;5074299;28;20062;-60
2022/10/13 10:53:53;;;;;;;5.20;4.28;;;;;;;8.78;64.09;99828.06;5110109;28;20506;-61
2022/10/13 10:56:36;;;;;;;9.25;5.18;;;;;;;8.81;63.49;99827.63;5109230;28;20099;-61
2022/10/13 10:59:20;;;;;;;7.68;5.10;;;;;;;8.94;64.01;99826.72;5110616;28;20521;-61
2022/10/13 11:02:06;;;;;;;5.25;4.10;;;;;;;9.08;63.50;99818.44;5111699;28;20047;-61
2022/10/13 11:04:39;;;;;;;6.15;4.20;;;;;;;9.26;62.99;99825.59;5070812;28;20040;-62
2022/10/13 11:07:22;;;;;;;4.75;3.40;;;;;;;9.23;61.65;99825.25;5110861;28;20469;-58
2022/10/13 11:09:47;;;;;;;4.30;3.30;;;;;;;9.03;62.22;99820.97;5094422;28;20036;-60
2022/10/13 11:12:22;;;;;;;4.57;3.10;;;;;;;8.83;63.04;99815.81;5110808;28;20054;-60
2022/10/13 11:14:53;;;;;;;5.45;3.97;;;;;;;8.90;62.47;99821.06;5108468;28;20139;-62
2022/10/13 11:17:29;;;;;;;5.75;3.97;;;;;;;9.05;63.22;99810.94;5110337;28;20065;-61
2022/10/13 11:19:55;;;;;;;5.13;3.92;;;;;;;9.18;62.28;99817.19;5109090;28;20032;-60
2022/10/13 11:22:29;;;;;;;7.13;3.42;;;;;;;9.22;61.70;99811.22;5108585;28;20480;-60
2022/10/13 11:25:01;;;;;;;6.20;3.92;;;;;;;9.26;61.98;99817.69;5110071;28;20067;-60
2022/10/13 11:27:47;;;;;;;6.30;3.67;;;;;;;9.14;61.33;99800.91;5071650;28;20508;-60
2022/10/13 11:30:39;;;;;;;5.30;3.72;;;;;;;9.21;61.25;99804.31;5108514;28;20081;-61
2022/10/13 11:33:35;;;;;;;4.55;3.10;;;;;;;9.16;60.81;99812.09;5108591;28;20133;-63
2022/10/13 11:36:28;;;;;;;4.32;3.47;;;;;;;9.05;62.34;99805.66;5109137;28;20082;-62
2022/10/13 11:39:04;;;;;;;4.55;3.00;;;;;;;9.06;61.61;99802.00;5108198;28;20043;-61
2022/10/13 11:41:35;;;;;;;4.97;2.90;;;;;;;9.04;61.89;99793.47;5109216;28;20522;-62
2022/10/13 11:44:37;;;;;;;5.57;3.75;;;;;;;8.97;62.45;99799.84;5094620;28;20032;-62
2022/10/13 11:47:09;;;;;;;6.05;3.50;;;;;;;8.91;62.61;99793.56;5110879;28;20089;-62
2022/10/13 11:50:00;;;;;;;4.80;3.50;;;;;;;8.87;62.77;99802.97;5108032;27;20104;-61
2022/10/13 11:52:56;;;;;;;5.60;3.50;;;;;;;8.88;62.92;99801.94;5109224;27;20047;-61
2022/10/13 11:55:46;;;;;;;10.60;3.47;;;;;;;8.96;62.84;99801.69;5102904;27;20043;-60